sensor_id;sensor_type;location;lat;lon;timestamp;P1;durP1;ratioP1;P2;durP2;ratioP2
13793;SDS011;31160;49.500;7.772;2023-04-08T00:00:26;11.37;;;8.50;;
13793;SDS011;31160;49.500;7.772;2023-04-08T00:02:52;14.13;;;8.90;;
13793;SDS011;31160;49.500;7.772;2023-04-08T00:05:19;14.17;;;8.47;;
13793;SDS011;31160;49.500;7.772;2023-04-08T00:07:46;13.50;;;8.27;;
13793;SDS011;31160;49.500;7.772;2023-04-08T00:10:13;12.23;;;8.27;;
13793;SDS011;31160;49.500;7.772;2023-04-08T00:12:39;15.43;;;8.07;;
13793;SDS011;31160;49.500;7.772;2023-04-08T00:15:06;12.40;;;9.37;;
13793;SDS011;31160;49.500;7.772;2023-04-08T00:17:33;12.47;;;8.13;;
13793;SDS011;31160;49.500;7.772;2023-04-08T00:20:00;13.77;;;8.33;;
13793;SDS011;31160;49.500;7.772;2023-04-08T00:22:27;13.73;;;7.67;;
13793;SDS011;31160;49.500;7.772;2023-04-08T00:24:54;11.73;;;7.57;;
13793;SDS011;31160;49.500;7.772;2023-04-08T00:27:20;10.20;;;7.27;;
13793;SDS011;31160;49.500;7.772;2023-04-08T00:29:47;12.03;;;7.50;;
13793;SDS011;31160;49.500;7.772;2023-04-08T00:32:14;11.30;;;7.53;;
13793;SDS011;31160;49.500;7.772;2023-04-08T00:34:41;11.67;;;7.40;;
13793;SDS011;31160;49.500;7.772;2023-04-08T00:37:08;10.87;;;7.50;;
13793;SDS011;31160;49.500;7.772;2023-04-08T00:39:36;14.37;;;7.13;;
13793;SDS011;31160;49.500;7.772;2023-04-08T00:42:03;11.67;;;7.73;;
13793;SDS011;31160;49.500;7.772;2023-04-08T00:44:29;11.10;;;7.27;;
13793;SDS011;31160;49.500;7.772;2023-04-08T00:46:56;11.93;;;7.67;;
13793;SDS011;31160;49.500;7.772;2023-04-08T00:49:23;10.30;;;7.10;;
13793;SDS011;31160;49.500;7.772;2023-04-08T00:51:51;9.93;;;7.30;;
13793;SDS011;31160;49.500;7.772;2023-04-08T00:54:18;12.80;;;8.17;;
13793;SDS011;31160;49.500;7.772;2023-04-08T00:56:45;9.97;;;7.57;;
13793;SDS011;31160;49.500;7.772;2023-04-08T00:59:12;12.93;;;7.87;;
13793;SDS011;31160;49.500;7.772;2023-04-08T01:06:59;10.00;;;7.23;;
13793;SDS011;31160;49.500;7.772;2023-04-08T01:09:34;12.33;;;7.97;;
13793;SDS011;31160;49.500;7.772;2023-04-08T01:12:05;11.23;;;7.43;;
13793;SDS011;31160;49.500;7.772;2023-04-08T01:14:34;10.30;;;7.60;;
13793;SDS011;31160;49.500;7.772;2023-04-08T01:17:07;9.83;;;7.37;;
13793;SDS011;31160;49.500;7.772;2023-04-08T01:19:36;9.90;;;7.40;;
13793;SDS011;31160;49.500;7.772;2023-04-08T01:24:43;11.27;;;7.10;;
13793;SDS011;31160;49.500;7.772;2023-04-08T01:27:12;9.93;;;7.03;;
13793;SDS011;31160;49.500;7.772;2023-04-08T01:29:41;12.50;;;7.33;;
13793;SDS011;31160;49.500;7.772;2023-04-08T01:32:09;10.90;;;7.47;;
13793;SDS011;31160;49.500;7.772;2023-04-08T01:34:37;10.27;;;7.37;;
13793;SDS011;31160;49.500;7.772;2023-04-08T01:37:05;10.37;;;7.47;;
13793;SDS011;31160;49.500;7.772;2023-04-08T01:39:32;10.93;;;7.50;;
13793;SDS011;31160;49.500;7.772;2023-04-08T01:42:01;11.17;;;7.27;;
13793;SDS011;31160;49.500;7.772;2023-04-08T01:44:28;10.03;;;6.90;;
13793;SDS011;31160;49.500;7.772;2023-04-08T01:46:55;10.10;;;7.17;;
13793;SDS011;31160;49.500;7.772;2023-04-08T01:49:23;10.60;;;7.60;;
13793;SDS011;31160;49.500;7.772;2023-04-08T01:51:51;10.83;;;7.57;;
13793;SDS011;31160;49.500;7.772;2023-04-08T01:54:20;11.50;;;7.20;;
13793;SDS011;31160;49.500;7.772;2023-04-08T01:56:47;10.97;;;8.00;;
13793;SDS011;31160;49.500;7.772;2023-04-08T01:59:16;12.17;;;8.57;;
13793;SDS011;31160;49.500;7.772;2023-04-08T02:01:45;13.00;;;9.63;;
13793;SDS011;31160;49.500;7.772;2023-04-08T02:04:13;10.80;;;6.97;;
13793;SDS011;31160;49.500;7.772;2023-04-08T02:06:41;9.77;;;7.07;;
13793;SDS011;31160;49.500;7.772;2023-04-08T02:09:08;11.07;;;6.87;;
13793;SDS011;31160;49.500;7.772;2023-04-08T02:11:35;11.13;;;7.13;;
13793;SDS011;31160;49.500;7.772;2023-04-08T02:14:02;8.77;;;6.30;;
13793;SDS011;31160;49.500;7.772;2023-04-08T02:19:07;11.30;;;7.13;;
13793;SDS011;31160;49.500;7.772;2023-04-08T02:21:47;11.37;;;7.67;;
13793;SDS011;31160;49.500;7.772;2023-04-08T02:24:17;8.80;;;6.30;;
13793;SDS011;31160;49.500;7.772;2023-04-08T02:26:45;8.53;;;6.03;;
13793;SDS011;31160;49.500;7.772;2023-04-08T02:29:14;10.90;;;7.30;;
13793;SDS011;31160;49.500;7.772;2023-04-08T02:31:42;12.47;;;7.40;;
13793;SDS011;31160;49.500;7.772;2023-04-08T02:34:12;9.30;;;6.57;;
13793;SDS011;31160;49.500;7.772;2023-04-08T02:36:41;9.57;;;6.10;;
13793;SDS011;31160;49.500;7.772;2023-04-08T02:39:11;10.60;;;7.53;;
13793;SDS011;31160;49.500;7.772;2023-04-08T02:41:38;9.80;;;6.80;;
13793;SDS011;31160;49.500;7.772;2023-04-08T02:44:05;9.90;;;6.67;;
13793;SDS011;31160;49.500;7.772;2023-04-08T02:46:31;11.87;;;8.07;;
13793;SDS011;31160;49.500;7.772;2023-04-08T02:49:01;13.87;;;8.70;;
13793;SDS011;31160;49.500;7.772;2023-04-08T02:51:28;12.67;;;8.07;;
13793;SDS011;31160;49.500;7.772;2023-04-08T02:53:55;11.57;;;8.10;;
13793;SDS011;31160;49.500;7.772;2023-04-08T02:56:22;12.33;;;8.17;;
13793;SDS011;31160;49.500;7.772;2023-04-08T02:58:48;11.60;;;7.77;;
13793;SDS011;31160;49.500;7.772;2023-04-08T03:01:17;11.43;;;7.57;;
13793;SDS011;31160;49.500;7.772;2023-04-08T03:03:44;10.93;;;7.77;;
13793;SDS011;31160;49.500;7.772;2023-04-08T03:06:11;12.70;;;8.10;;
13793;SDS011;31160;49.500;7.772;2023-04-08T03:08:38;11.47;;;8.33;;
13793;SDS011;31160;49.500;7.772;2023-04-08T03:11:04;13.00;;;8.60;;
13793;SDS011;31160;49.500;7.772;2023-04-08T03:13:31;13.80;;;8.77;;
13793;SDS011;31160;49.500;7.772;2023-04-08T03:15:58;12.80;;;8.17;;
13793;SDS011;31160;49.500;7.772;2023-04-08T03:18:25;12.73;;;7.93;;
13793;SDS011;31160;49.500;7.772;2023-04-08T03:20:52;12.60;;;7.93;;
13793;SDS011;31160;49.500;7.772;2023-04-08T03:23:18;11.00;;;7.47;;
13793;SDS011;31160;49.500;7.772;2023-04-08T03:25:45;10.93;;;7.27;;
13793;SDS011;31160;49.500;7.772;2023-04-08T03:28:12;11.47;;;7.87;;
13793;SDS011;31160;49.500;7.772;2023-04-08T03:30:38;11.57;;;7.87;;
13793;SDS011;31160;49.500;7.772;2023-04-08T03:33:05;11.93;;;8.10;;
13793;SDS011;31160;49.500;7.772;2023-04-08T03:35:33;13.70;;;8.40;;
13793;SDS011;31160;49.500;7.772;2023-04-08T03:38:00;12.03;;;7.90;;
13793;SDS011;31160;49.500;7.772;2023-04-08T03:40:26;10.53;;;7.20;;
13793;SDS011;31160;49.500;7.772;2023-04-08T03:42:53;11.90;;;7.10;;
13793;SDS011;31160;49.500;7.772;2023-04-08T03:45:20;10.83;;;6.87;;
13793;SDS011;31160;49.500;7.772;2023-04-08T03:47:47;10.00;;;6.77;;
13793;SDS011;31160;49.500;7.772;2023-04-08T03:50:13;10.53;;;6.70;;
13793;SDS011;31160;49.500;7.772;2023-04-08T03:52:40;9.97;;;6.23;;
13793;SDS011;31160;49.500;7.772;2023-04-08T03:55:07;8.83;;;6.63;;
13793;SDS011;31160;49.500;7.772;2023-04-08T03:57:34;10.87;;;6.50;;
13793;SDS011;31160;49.500;7.772;2023-04-08T04:00:01;8.20;;;5.93;;
13793;SDS011;31160;49.500;7.772;2023-04-08T04:02:37;9.93;;;6.20;;
13793;SDS011;31160;49.500;7.772;2023-04-08T04:05:04;11.43;;;6.50;;
13793;SDS011;31160;49.500;7.772;2023-04-08T04:07:31;8.10;;;5.67;;
13793;SDS011;31160;49.500;7.772;2023-04-08T04:09:58;11.13;;;7.00;;
13793;SDS011;31160;49.500;7.772;2023-04-08T04:12:25;9.17;;;6.30;;
13793;SDS011;31160;49.500;7.772;2023-04-08T04:14:51;10.00;;;6.43;;
13793;SDS011;31160;49.500;7.772;2023-04-08T04:17:18;10.63;;;6.27;;
13793;SDS011;31160;49.500;7.772;2023-04-08T04:19:45;11.17;;;7.07;;
13793;SDS011;31160;49.500;7.772;2023-04-08T04:22:11;9.83;;;6.77;;
13793;SDS011;31160;49.500;7.772;2023-04-08T04:24:38;10.83;;;6.43;;
13793;SDS011;31160;49.500;7.772;2023-04-08T04:27:05;10.27;;;6.57;;
13793;SDS011;31160;49.500;7.772;2023-04-08T04:29:31;9.73;;;6.60;;
13793;SDS011;31160;49.500;7.772;2023-04-08T04:31:58;10.13;;;6.37;;
13793;SDS011;31160;49.500;7.772;2023-04-08T04:34:25;10.03;;;6.60;;
13793;SDS011;31160;49.500;7.772;2023-04-08T04:36:51;10.23;;;6.90;;
13793;SDS011;31160;49.500;7.772;2023-04-08T04:39:18;10.03;;;6.53;;
13793;SDS011;31160;49.500;7.772;2023-04-08T04:41:45;13.33;;;6.77;;
13793;SDS011;31160;49.500;7.772;2023-04-08T04:44:14;12.23;;;8.37;;
13793;SDS011;31160;49.500;7.772;2023-04-08T04:46:41;11.40;;;7.60;;
13793;SDS011;31160;49.500;7.772;2023-04-08T04:49:07;14.47;;;7.17;;
13793;SDS011;31160;49.500;7.772;2023-04-08T04:51:34;11.17;;;7.07;;
13793;SDS011;31160;49.500;7.772;2023-04-08T04:54:01;10.40;;;6.47;;
13793;SDS011;31160;49.500;7.772;2023-04-08T04:56:28;10.33;;;6.53;;
13793;SDS011;31160;49.500;7.772;2023-04-08T04:58:54;10.40;;;7.27;;
13793;SDS011;31160;49.500;7.772;2023-04-08T05:01:21;9.67;;;7.03;;
13793;SDS011;31160;49.500;7.772;2023-04-08T05:03:48;8.67;;;6.37;;
13793;SDS011;31160;49.500;7.772;2023-04-08T05:06:14;9.20;;;5.63;;
13793;SDS011;31160;49.500;7.772;2023-04-08T05:08:41;10.40;;;7.23;;
13793;SDS011;31160;49.500;7.772;2023-04-08T05:11:08;9.83;;;6.57;;
13793;SDS011;31160;49.500;7.772;2023-04-08T05:13:36;8.10;;;5.83;;
13793;SDS011;31160;49.500;7.772;2023-04-08T05:16:02;9.63;;;6.43;;
13793;SDS011;31160;49.500;7.772;2023-04-08T05:18:29;9.90;;;7.03;;
13793;SDS011;31160;49.500;7.772;2023-04-08T05:20:56;9.50;;;6.17;;
13793;SDS011;31160;49.500;7.772;2023-04-08T05:23:23;11.33;;;7.13;;
13793;SDS011;31160;49.500;7.772;2023-04-08T05:25:50;9.30;;;6.87;;
13793;SDS011;31160;49.500;7.772;2023-04-08T05:28:16;9.17;;;6.23;;
13793;SDS011;31160;49.500;7.772;2023-04-08T05:30:49;9.53;;;6.03;;
13793;SDS011;31160;49.500;7.772;2023-04-08T05:33:17;11.03;;;6.77;;
13793;SDS011;31160;49.500;7.772;2023-04-08T05:35:44;13.07;;;7.10;;
13793;SDS011;31160;49.500;7.772;2023-04-08T05:38:11;11.40;;;6.73;;
13793;SDS011;31160;49.500;7.772;2023-04-08T05:40:38;9.00;;;6.40;;
13793;SDS011;31160;49.500;7.772;2023-04-08T05:43:05;10.33;;;7.20;;
13793;SDS011;31160;49.500;7.772;2023-04-08T05:45:31;9.13;;;6.37;;
13793;SDS011;31160;49.500;7.772;2023-04-08T05:47:58;8.73;;;6.03;;
13793;SDS011;31160;49.500;7.772;2023-04-08T05:50:25;9.60;;;7.07;;
13793;SDS011;31160;49.500;7.772;2023-04-08T05:52:52;9.70;;;6.83;;
13793;SDS011;31160;49.500;7.772;2023-04-08T05:55:19;11.57;;;6.90;;
13793;SDS011;31160;49.500;7.772;2023-04-08T05:57:45;10.33;;;7.00;;
13793;SDS011;31160;49.500;7.772;2023-04-08T06:00:12;12.07;;;7.70;;
13793;SDS011;31160;49.500;7.772;2023-04-08T06:02:39;12.57;;;7.80;;
13793;SDS011;31160;49.500;7.772;2023-04-08T06:05:06;11.23;;;7.60;;
13793;SDS011;31160;49.500;7.772;2023-04-08T06:07:33;10.63;;;7.40;;
13793;SDS011;31160;49.500;7.772;2023-04-08T06:10:00;12.57;;;8.33;;
13793;SDS011;31160;49.500;7.772;2023-04-08T06:12:27;16.47;;;7.97;;
13793;SDS011;31160;49.500;7.772;2023-04-08T06:14:54;11.43;;;7.70;;
13793;SDS011;31160;49.500;7.772;2023-04-08T06:17:21;14.00;;;8.53;;
13793;SDS011;31160;49.500;7.772;2023-04-08T06:19:48;16.30;;;8.67;;
13793;SDS011;31160;49.500;7.772;2023-04-08T06:22:15;13.00;;;8.40;;
13793;SDS011;31160;49.500;7.772;2023-04-08T06:24:42;14.07;;;8.87;;
13793;SDS011;31160;49.500;7.772;2023-04-08T06:27:08;14.90;;;8.37;;
13793;SDS011;31160;49.500;7.772;2023-04-08T06:29:35;13.10;;;8.80;;
13793;SDS011;31160;49.500;7.772;2023-04-08T06:32:02;12.60;;;8.97;;
13793;SDS011;31160;49.500;7.772;2023-04-08T06:34:29;17.10;;;9.53;;
13793;SDS011;31160;49.500;7.772;2023-04-08T06:36:55;14.70;;;10.17;;
13793;SDS011;31160;49.500;7.772;2023-04-08T06:39:22;14.03;;;9.10;;
13793;SDS011;31160;49.500;7.772;2023-04-08T06:41:49;15.47;;;10.07;;
13793;SDS011;31160;49.500;7.772;2023-04-08T06:44:32;14.20;;;9.23;;
13793;SDS011;31160;49.500;7.772;2023-04-08T06:46:59;14.83;;;8.80;;
13793;SDS011;31160;49.500;7.772;2023-04-08T06:49:26;12.43;;;8.70;;
13793;SDS011;31160;49.500;7.772;2023-04-08T06:51:52;12.37;;;7.73;;
13793;SDS011;31160;49.500;7.772;2023-04-08T06:54:19;14.90;;;10.23;;
13793;SDS011;31160;49.500;7.772;2023-04-08T06:56:46;15.77;;;10.00;;
13793;SDS011;31160;49.500;7.772;2023-04-08T06:59:13;14.23;;;10.10;;
13793;SDS011;31160;49.500;7.772;2023-04-08T07:01:39;15.93;;;11.47;;
13793;SDS011;31160;49.500;7.772;2023-04-08T07:04:07;17.27;;;11.93;;
13793;SDS011;31160;49.500;7.772;2023-04-08T07:06:34;17.30;;;12.60;;
13793;SDS011;31160;49.500;7.772;2023-04-08T07:09:00;18.00;;;12.60;;
13793;SDS011;31160;49.500;7.772;2023-04-08T07:11:27;18.27;;;11.77;;
13793;SDS011;31160;49.500;7.772;2023-04-08T07:13:54;20.23;;;12.57;;
13793;SDS011;31160;49.500;7.772;2023-04-08T07:16:21;17.27;;;11.53;;
13793;SDS011;31160;49.500;7.772;2023-04-08T07:18:47;16.03;;;11.67;;
13793;SDS011;31160;49.500;7.772;2023-04-08T07:21:14;14.70;;;11.33;;
13793;SDS011;31160;49.500;7.772;2023-04-08T07:23:42;14.10;;;10.40;;
13793;SDS011;31160;49.500;7.772;2023-04-08T07:26:08;19.40;;;11.93;;
13793;SDS011;31160;49.500;7.772;2023-04-08T07:28:35;15.87;;;11.33;;
13793;SDS011;31160;49.500;7.772;2023-04-08T07:31:08;14.00;;;11.03;;
13793;SDS011;31160;49.500;7.772;2023-04-08T07:33:39;17.43;;;12.40;;
13793;SDS011;31160;49.500;7.772;2023-04-08T07:36:06;17.70;;;12.47;;
13793;SDS011;31160;49.500;7.772;2023-04-08T07:38:35;13.97;;;10.67;;
13793;SDS011;31160;49.500;7.772;2023-04-08T07:41:01;14.17;;;10.43;;
13793;SDS011;31160;49.500;7.772;2023-04-08T07:43:29;16.77;;;11.77;;
13793;SDS011;31160;49.500;7.772;2023-04-08T07:46:00;15.60;;;9.97;;
13793;SDS011;31160;49.500;7.772;2023-04-08T07:48:30;15.60;;;10.37;;
13793;SDS011;31160;49.500;7.772;2023-04-08T07:51:01;15.47;;;10.47;;
13793;SDS011;31160;49.500;7.772;2023-04-08T07:53:35;12.57;;;10.73;;
13793;SDS011;31160;49.500;7.772;2023-04-08T07:56:08;15.77;;;11.63;;
13793;SDS011;31160;49.500;7.772;2023-04-08T07:58:40;22.03;;;16.17;;
13793;SDS011;31160;49.500;7.772;2023-04-08T08:01:17;16.97;;;12.27;;
13793;SDS011;31160;49.500;7.772;2023-04-08T08:03:45;17.37;;;12.53;;
13793;SDS011;31160;49.500;7.772;2023-04-08T08:06:13;15.10;;;11.37;;
13793;SDS011;31160;49.500;7.772;2023-04-08T08:08:40;15.27;;;11.57;;
13793;SDS011;31160;49.500;7.772;2023-04-08T08:11:07;19.97;;;11.97;;
13793;SDS011;31160;49.500;7.772;2023-04-08T08:13:34;16.50;;;11.37;;
13793;SDS011;31160;49.500;7.772;2023-04-08T08:16:00;15.77;;;11.63;;
13793;SDS011;31160;49.500;7.772;2023-04-08T08:18:27;17.13;;;11.07;;
13793;SDS011;31160;49.500;7.772;2023-04-08T08:20:54;16.10;;;11.53;;
13793;SDS011;31160;49.500;7.772;2023-04-08T08:23:21;15.47;;;11.73;;
13793;SDS011;31160;49.500;7.772;2023-04-08T08:25:48;15.03;;;12.03;;
13793;SDS011;31160;49.500;7.772;2023-04-08T08:28:15;15.67;;;11.73;;
13793;SDS011;31160;49.500;7.772;2023-04-08T08:30:42;17.23;;;12.60;;
13793;SDS011;31160;49.500;7.772;2023-04-08T08:33:09;18.37;;;11.67;;
13793;SDS011;31160;49.500;7.772;2023-04-08T08:35:35;13.03;;;10.53;;
13793;SDS011;31160;49.500;7.772;2023-04-08T08:38:02;12.40;;;9.80;;
13793;SDS011;31160;49.500;7.772;2023-04-08T08:40:29;13.30;;;10.00;;
13793;SDS011;31160;49.500;7.772;2023-04-08T08:42:56;13.53;;;10.07;;
13793;SDS011;31160;49.500;7.772;2023-04-08T08:45:24;13.00;;;10.03;;
13793;SDS011;31160;49.500;7.772;2023-04-08T08:47:51;19.07;;;10.70;;
13793;SDS011;31160;49.500;7.772;2023-04-08T08:50:18;13.80;;;11.17;;
13793;SDS011;31160;49.500;7.772;2023-04-08T08:52:48;12.23;;;10.20;;
13793;SDS011;31160;49.500;7.772;2023-04-08T08:55:19;14.30;;;10.20;;
13793;SDS011;31160;49.500;7.772;2023-04-08T08:58:07;13.33;;;10.37;;
13793;SDS011;31160;49.500;7.772;2023-04-08T09:00:34;12.70;;;10.30;;
13793;SDS011;31160;49.500;7.772;2023-04-08T09:10:52;14.13;;;10.90;;
13793;SDS011;31160;49.500;7.772;2023-04-08T09:13:20;12.23;;;10.07;;
13793;SDS011;31160;49.500;7.772;2023-04-08T09:16:04;16.47;;;9.60;;
13793;SDS011;31160;49.500;7.772;2023-04-08T09:18:35;13.67;;;9.93;;
13793;SDS011;31160;49.500;7.772;2023-04-08T09:21:03;11.03;;;8.80;;
13793;SDS011;31160;49.500;7.772;2023-04-08T09:23:41;11.27;;;8.93;;
13793;SDS011;31160;49.500;7.772;2023-04-08T09:26:12;11.47;;;9.37;;
13793;SDS011;31160;49.500;7.772;2023-04-08T09:29:02;11.87;;;9.40;;
13793;SDS011;31160;49.500;7.772;2023-04-08T09:31:53;12.07;;;9.10;;
13793;SDS011;31160;49.500;7.772;2023-04-08T09:34:22;14.07;;;10.10;;
13793;SDS011;31160;49.500;7.772;2023-04-08T09:36:49;12.83;;;9.53;;
13793;SDS011;31160;49.500;7.772;2023-04-08T09:39:17;15.10;;;10.30;;
13793;SDS011;31160;49.500;7.772;2023-04-08T09:41:45;13.23;;;9.30;;
13793;SDS011;31160;49.500;7.772;2023-04-08T09:44:14;10.50;;;8.73;;
13793;SDS011;31160;49.500;7.772;2023-04-08T09:51:58;13.33;;;10.07;;
13793;SDS011;31160;49.500;7.772;2023-04-08T09:57:22;13.30;;;9.53;;
13793;SDS011;31160;49.500;7.772;2023-04-08T09:59:59;15.73;;;10.07;;
13793;SDS011;31160;49.500;7.772;2023-04-08T10:02:54;12.93;;;11.23;;
13793;SDS011;31160;49.500;7.772;2023-04-08T10:05:26;13.80;;;9.90;;
13793;SDS011;31160;49.500;7.772;2023-04-08T10:07:54;13.13;;;9.70;;
13793;SDS011;31160;49.500;7.772;2023-04-08T10:10:21;13.20;;;10.50;;
13793;SDS011;31160;49.500;7.772;2023-04-08T10:12:48;13.60;;;10.83;;
13793;SDS011;31160;49.500;7.772;2023-04-08T10:15:32;11.53;;;9.60;;
13793;SDS011;31160;49.500;7.772;2023-04-08T10:23:01;12.77;;;9.30;;
13793;SDS011;31160;49.500;7.772;2023-04-08T10:25:30;12.17;;;9.60;;
13793;SDS011;31160;49.500;7.772;2023-04-08T10:30:49;13.73;;;9.37;;
13793;SDS011;31160;49.500;7.772;2023-04-08T10:33:23;14.97;;;10.63;;
13793;SDS011;31160;49.500;7.772;2023-04-08T10:36:09;13.00;;;9.97;;
13793;SDS011;31160;49.500;7.772;2023-04-08T10:38:37;16.60;;;10.93;;
13793;SDS011;31160;49.500;7.772;2023-04-08T10:41:04;16.73;;;10.73;;
13793;SDS011;31160;49.500;7.772;2023-04-08T10:43:34;12.57;;;10.27;;
13793;SDS011;31160;49.500;7.772;2023-04-08T10:46:02;16.30;;;11.60;;
13793;SDS011;31160;49.500;7.772;2023-04-08T10:48:30;12.50;;;9.77;;
13793;SDS011;31160;49.500;7.772;2023-04-08T10:56:02;13.87;;;10.77;;
13793;SDS011;31160;49.500;7.772;2023-04-08T10:58:33;13.97;;;11.43;;
13793;SDS011;31160;49.500;7.772;2023-04-08T11:01:05;14.60;;;10.33;;
13793;SDS011;31160;49.500;7.772;2023-04-08T11:03:35;16.37;;;10.53;;
13793;SDS011;31160;49.500;7.772;2023-04-08T11:06:03;13.20;;;10.13;;
13793;SDS011;31160;49.500;7.772;2023-04-08T11:08:30;15.67;;;10.57;;
13793;SDS011;31160;49.500;7.772;2023-04-08T11:10:58;13.13;;;10.93;;
13793;SDS011;31160;49.500;7.772;2023-04-08T11:13:29;13.87;;;11.17;;
13793;SDS011;31160;49.500;7.772;2023-04-08T11:15:57;13.03;;;10.80;;
13793;SDS011;31160;49.500;7.772;2023-04-08T11:18:25;14.33;;;10.10;;
13793;SDS011;31160;49.500;7.772;2023-04-08T11:20:52;14.60;;;10.30;;
13793;SDS011;31160;49.500;7.772;2023-04-08T11:23:19;13.57;;;10.57;;
13793;SDS011;31160;49.500;7.772;2023-04-08T11:25:48;13.27;;;10.97;;
13793;SDS011;31160;49.500;7.772;2023-04-08T11:28:15;12.60;;;9.53;;
13793;SDS011;31160;49.500;7.772;2023-04-08T11:30:43;13.60;;;9.87;;
13793;SDS011;31160;49.500;7.772;2023-04-08T11:33:09;14.03;;;10.33;;
13793;SDS011;31160;49.500;7.772;2023-04-08T11:35:39;13.23;;;9.87;;
13793;SDS011;31160;49.500;7.772;2023-04-08T11:38:07;13.47;;;9.97;;
13793;SDS011;31160;49.500;7.772;2023-04-08T11:40:34;13.00;;;10.53;;
13793;SDS011;31160;49.500;7.772;2023-04-08T11:43:08;14.20;;;9.93;;
13793;SDS011;31160;49.500;7.772;2023-04-08T11:45:39;15.63;;;10.53;;
13793;SDS011;31160;49.500;7.772;2023-04-08T11:48:07;14.57;;;9.70;;
13793;SDS011;31160;49.500;7.772;2023-04-08T11:50:35;12.07;;;9.03;;
13793;SDS011;31160;49.500;7.772;2023-04-08T11:53:02;14.37;;;10.23;;
13793;SDS011;31160;49.500;7.772;2023-04-08T11:55:30;10.47;;;8.63;;
13793;SDS011;31160;49.500;7.772;2023-04-08T11:58:01;12.97;;;9.43;;
13793;SDS011;31160;49.500;7.772;2023-04-08T12:00:29;12.47;;;9.17;;
13793;SDS011;31160;49.500;7.772;2023-04-08T12:02:56;11.37;;;8.13;;
13793;SDS011;31160;49.500;7.772;2023-04-08T12:05:23;13.50;;;8.90;;
13793;SDS011;31160;49.500;7.772;2023-04-08T12:07:50;11.53;;;8.20;;
13793;SDS011;31160;49.500;7.772;2023-04-08T12:10:17;8.93;;;6.47;;
13793;SDS011;31160;49.500;7.772;2023-04-08T12:12:43;8.97;;;6.20;;
13793;SDS011;31160;49.500;7.772;2023-04-08T12:15:10;8.57;;;6.70;;
13793;SDS011;31160;49.500;7.772;2023-04-08T12:17:37;9.70;;;6.47;;
13793;SDS011;31160;49.500;7.772;2023-04-08T12:20:04;8.80;;;5.80;;
13793;SDS011;31160;49.500;7.772;2023-04-08T12:22:32;7.93;;;4.27;;
13793;SDS011;31160;49.500;7.772;2023-04-08T12:24:58;5.47;;;4.00;;
13793;SDS011;31160;49.500;7.772;2023-04-08T12:27:25;4.67;;;3.77;;
13793;SDS011;31160;49.500;7.772;2023-04-08T12:29:52;6.70;;;4.60;;
13793;SDS011;31160;49.500;7.772;2023-04-08T12:32:18;6.83;;;5.10;;
13793;SDS011;31160;49.500;7.772;2023-04-08T12:34:45;7.00;;;4.40;;
13793;SDS011;31160;49.500;7.772;2023-04-08T12:37:12;6.97;;;4.90;;
13793;SDS011;31160;49.500;7.772;2023-04-08T12:39:39;6.33;;;4.70;;
13793;SDS011;31160;49.500;7.772;2023-04-08T12:42:06;8.73;;;5.90;;
13793;SDS011;31160;49.500;7.772;2023-04-08T12:44:32;8.30;;;5.17;;
13793;SDS011;31160;49.500;7.772;2023-04-08T12:46:59;7.27;;;5.37;;
13793;SDS011;31160;49.500;7.772;2023-04-08T12:49:26;7.37;;;5.57;;
13793;SDS011;31160;49.500;7.772;2023-04-08T12:51:53;6.40;;;5.13;;
13793;SDS011;31160;49.500;7.772;2023-04-08T12:54:20;6.67;;;5.33;;
13793;SDS011;31160;49.500;7.772;2023-04-08T12:56:47;8.37;;;5.93;;
13793;SDS011;31160;49.500;7.772;2023-04-08T12:59:14;7.83;;;5.90;;
13793;SDS011;31160;49.500;7.772;2023-04-08T13:01:41;7.50;;;5.70;;
13793;SDS011;31160;49.500;7.772;2023-04-08T13:04:08;7.43;;;5.63;;
13793;SDS011;31160;49.500;7.772;2023-04-08T13:06:34;8.00;;;6.13;;
13793;SDS011;31160;49.500;7.772;2023-04-08T13:09:01;5.93;;;5.27;;
13793;SDS011;31160;49.500;7.772;2023-04-08T13:11:28;8.80;;;5.57;;
13793;SDS011;31160;49.500;7.772;2023-04-08T13:13:55;6.77;;;5.20;;
13793;SDS011;31160;49.500;7.772;2023-04-08T13:16:21;7.70;;;5.50;;
13793;SDS011;31160;49.500;7.772;2023-04-08T13:18:48;8.87;;;5.23;;
13793;SDS011;31160;49.500;7.772;2023-04-08T13:21:15;10.30;;;6.03;;
13793;SDS011;31160;49.500;7.772;2023-04-08T13:23:42;7.67;;;5.47;;
13793;SDS011;31160;49.500;7.772;2023-04-08T13:26:08;8.37;;;5.43;;
13793;SDS011;31160;49.500;7.772;2023-04-08T13:28:35;6.67;;;4.77;;
13793;SDS011;31160;49.500;7.772;2023-04-08T13:31:21;6.90;;;5.07;;
13793;SDS011;31160;49.500;7.772;2023-04-08T13:33:48;8.90;;;6.13;;
13793;SDS011;31160;49.500;7.772;2023-04-08T13:36:14;14.43;;;8.40;;
13793;SDS011;31160;49.500;7.772;2023-04-08T13:38:41;7.70;;;6.07;;
13793;SDS011;31160;49.500;7.772;2023-04-08T13:41:08;8.57;;;6.13;;
13793;SDS011;31160;49.500;7.772;2023-04-08T13:43:35;6.80;;;5.83;;
13793;SDS011;31160;49.500;7.772;2023-04-08T13:46:02;9.87;;;6.57;;
13793;SDS011;31160;49.500;7.772;2023-04-08T13:48:29;10.87;;;7.47;;
13793;SDS011;31160;49.500;7.772;2023-04-08T13:50:56;7.77;;;6.40;;
13793;SDS011;31160;49.500;7.772;2023-04-08T13:53:22;10.40;;;7.00;;
13793;SDS011;31160;49.500;7.772;2023-04-08T13:55:49;12.03;;;7.37;;
13793;SDS011;31160;49.500;7.772;2023-04-08T13:58:20;10.17;;;6.87;;
13793;SDS011;31160;49.500;7.772;2023-04-08T14:00:49;9.20;;;6.77;;
13793;SDS011;31160;49.500;7.772;2023-04-08T14:03:17;8.70;;;6.63;;
13793;SDS011;31160;49.500;7.772;2023-04-08T14:05:44;10.00;;;7.50;;
13793;SDS011;31160;49.500;7.772;2023-04-08T14:08:11;8.53;;;7.13;;
13793;SDS011;31160;49.500;7.772;2023-04-08T14:10:39;10.27;;;7.30;;
13793;SDS011;31160;49.500;7.772;2023-04-08T14:13:07;10.07;;;7.73;;
13793;SDS011;31160;49.500;7.772;2023-04-08T14:15:34;9.17;;;7.10;;
13793;SDS011;31160;49.500;7.772;2023-04-08T14:18:01;9.50;;;7.13;;
13793;SDS011;31160;49.500;7.772;2023-04-08T14:20:28;8.23;;;6.33;;
13793;SDS011;31160;49.500;7.772;2023-04-08T14:22:55;8.23;;;6.60;;
13793;SDS011;31160;49.500;7.772;2023-04-08T14:25:22;9.97;;;6.73;;
13793;SDS011;31160;49.500;7.772;2023-04-08T14:27:49;9.57;;;7.00;;
13793;SDS011;31160;49.500;7.772;2023-04-08T14:30:24;9.60;;;7.10;;
13793;SDS011;31160;49.500;7.772;2023-04-08T14:32:52;7.97;;;6.30;;
13793;SDS011;31160;49.500;7.772;2023-04-08T14:35:19;8.27;;;6.37;;
13793;SDS011;31160;49.500;7.772;2023-04-08T14:37:49;9.00;;;5.73;;
13793;SDS011;31160;49.500;7.772;2023-04-08T14:40:16;10.13;;;6.53;;
13793;SDS011;31160;49.500;7.772;2023-04-08T14:42:43;7.50;;;5.67;;
13793;SDS011;31160;49.500;7.772;2023-04-08T14:45:10;6.37;;;5.60;;
13793;SDS011;31160;49.500;7.772;2023-04-08T14:47:38;14.20;;;6.40;;
13793;SDS011;31160;49.500;7.772;2023-04-08T14:50:05;5.90;;;4.70;;
13793;SDS011;31160;49.500;7.772;2023-04-08T14:52:32;7.07;;;4.93;;
13793;SDS011;31160;49.500;7.772;2023-04-08T14:54:59;7.63;;;5.30;;
13793;SDS011;31160;49.500;7.772;2023-04-08T14:57:26;6.87;;;5.17;;
13793;SDS011;31160;49.500;7.772;2023-04-08T14:59:52;6.63;;;5.07;;
13793;SDS011;31160;49.500;7.772;2023-04-08T15:02:19;9.87;;;5.40;;
13793;SDS011;31160;49.500;7.772;2023-04-08T15:04:46;6.33;;;5.20;;
13793;SDS011;31160;49.500;7.772;2023-04-08T15:07:13;6.30;;;4.37;;
13793;SDS011;31160;49.500;7.772;2023-04-08T15:09:39;5.13;;;4.20;;
13793;SDS011;31160;49.500;7.772;2023-04-08T15:12:07;6.27;;;4.47;;
13793;SDS011;31160;49.500;7.772;2023-04-08T15:14:33;9.03;;;5.50;;
13793;SDS011;31160;49.500;7.772;2023-04-08T15:17:00;5.13;;;4.50;;
13793;SDS011;31160;49.500;7.772;2023-04-08T15:19:27;6.60;;;4.60;;